Aeroporto :
LOGIN :

Iscrizione | Disclaimer

   EN    FR    IT 

 










Sommario :    VFR   VFR Marginale   IFR   IFR Intensivo   IFR Molto Intensivo
Visibilità : 
Base nubi : 
>= 8 km
>= 3000ft
5 / 8 km
1000 / 3000 ft
1500m / 5 km
500 / 1000 ft
800 / 1500m
200 / 500 ft
< 800m
< 200 ft
Simboli :   Temporali  Nebbia  Neve Forte  Precipitazioni Forti  Vento > 20 kt
SIGMETs :   Varie  Temporali  Ghiacco  Turbolenza  Onda orograficha  Ceneri Vulcaniche






- Altitudine del aeroporto : 1202 ft
- Codice IATA : IGS


ETSI - Ingolstadt

ULTIMO METAR :
  • 281406Z 27024KT 3000 TSRASN FEW012 SCT015CB BKN022 01/00 Q1002 RESHGS YLO BLU TEMPO YLO

METARs OBSOLETI :
  • 281356Z 29028G40KT 1500 R25/1500D TSGSRA FEW012 BKN015CB 02/M00 Q1002 AMB BLU TEMPO YLO
  • 281320Z 25019G30KT 6000 -SHRA SCT015TCU BKN030 06/02 Q1001 WHT BLU TEMPO YLO
  • 281308Z 26018G33KT 7000 -SHRA FEW015TCU BKN030 BKN090 05/01 Q1001 WHT BLU TEMPO YLO
  • 281220Z 25015G26KT 9999 FEW018 SCT025 BKN090 05/02 Q1001 BLU BLU TEMPO YLO
  • 281120Z 27031G43KT 9999 -SHRA FEW018 BKN050 05/02 Q1000 BLU BLU TEMPO YLO

TAF TAF ETSI
Valido dal 28 a 12 ore il 28 a 21 ore UTC


281115Z 2812/2821 25015G28KT 9999 NSW SCT015 BKN030 BKN200
TEMPO 2812/2815 26025G45KT 3000 TSGS BKN008 BKN012CB
TEMPO 2815/2821 27018G32KT 3000 SHRASN BKN008 BKN015TCU



MetMap, La meteo Aeronautica in un colpo d'occhio ! - Copyright ORBIFLY Dicembre 2007 - Disclaimer

ORBIFLY MET'MAP TEAM :

Programmazione e sviluppo : Alexandra Zaïnal
Concezione : Baudouin d'Aumeries
Aiuto per la programmazione : Marc-Olivier Méhu
Supporto tecnico e logistico : Manuel Goepfert
Aiuto per la traduzione : Arnaldo La Scala

Contatto : metmap@orbifly.com




FONTI E CREDITI :

   NOAA